Weather History for Jefferson, NC

Change the Weather History Date:

Saturday, April 20, 2013

  Actual Average Record
Temperature  
Mean Temperature 42 °F -  
Max Temperature 51 °F 66 °F 80 °F (1968)
Min Temperature 32 °F 39 °F 23 °F (1988)
Degree Days  
Heating Degree Days 24    
Moisture  
Dew Point 21 °F    
Average Humidity 45    
Maximum Humidity 68    
Minimum Humidity 27    
Precipitation  
Precipitation 0.00 in - - ()
Sea Level Pressure  
Sea Level Pressure 30.09 in    
Wind  
Wind Speed 14 mph (NW)    
Max Wind Speed 28 mph    
Max Gust Speed 46 mph    
Visibility 10 miles    
Events      
Averages and records for this station are not official NWS values.
T = Trace of Precipitation, MM = Missing Value Source: NWS Daily Summary

Daily Weather History Graph

Daily Weather History Graph

Search for Another Location

Airport:

Trip Planner

Search our weather history database for the weather conditions in past years. The results will help you decide how hot, cold, wet, or windy it might be!

Date:

Astronomy

Apr. 20, 2013 Rise Set
Actual Time 6:45 AM EDT 8:04 PM EDT
Civil Twilight 6:18 AM EDT 8:31 PM EDT
Nautical Twilight 5:46 AM EDT 9:03 PM EDT
Astronomical Twilight 5:12 AM EDT 9:37 PM EDT
Moon 2:55 PM EDT (4/20) 3:24 AM EDT (4/20)
Length of Visible Light 14h 12m
Length of Day
13h 19m
Waxing Gibbous, 71% of the Moon is Illuminated
Apr 20
Waxing Gibbous
Apr 25
Full
May 2
Last Quarter
May 9
New
May 18
First Quarter

Hourly Weather History & Observations

Time (EDT) Temp. Windchill Dew Point Humidity Pressure Visibility Wind Dir Wind Speed Gust Speed Precip Events Conditions
12:15 AM 41.0 °F 32.5 °F 30.2 °F 65% 29.91 in 10.0 mi WNW 17.3 mph 29.9 mph N/A   Overcast
12:35 AM 40.5 °F 32.8 °F 30.6 °F 68% 29.91 in 10.0 mi NW 13.8 mph 26.5 mph N/A   Overcast
12:55 AM 40.5 °F 34.1 °F 30.2 °F 67% 29.93 in 10.0 mi West 10.4 mph - N/A   Overcast
1:15 AM 39.9 °F 31.4 °F 26.8 °F 59% 29.94 in 10.0 mi WNW 16.1 mph 25.3 mph N/A   Scattered Clouds
1:35 AM 39.4 °F 31.1 °F 27.3 °F 62% 29.93 in 10.0 mi WNW 15.0 mph 24.2 mph N/A   Mostly Cloudy
1:55 AM 39.0 °F 29.9 °F 26.8 °F 62% 29.92 in 10.0 mi NW 17.3 mph 32.2 mph N/A   Overcast
2:15 AM 38.7 °F 28.8 °F 27.3 °F 64% 29.93 in 10.0 mi WNW 19.6 mph 41.4 mph N/A   Overcast
2:35 AM 38.3 °F 27.6 °F 26.8 °F 63% 29.93 in 10.0 mi WNW 23.0 mph 46.0 mph N/A   Overcast
2:55 AM 38.1 °F 27.3 °F 26.6 °F 63% 29.93 in 10.0 mi WNW 23.0 mph 33.4 mph N/A   Overcast
3:15 AM 37.6 °F 26.1 °F 25.2 °F 61% 29.93 in 10.0 mi WNW 25.3 mph 43.7 mph N/A   Overcast
3:35 AM 36.9 °F 26.2 °F 23.5 °F 59% 29.93 in 10.0 mi WNW 20.7 mph 42.6 mph N/A   Scattered Clouds
3:55 AM 36.5 °F 24.2 °F 22.5 °F 57% 29.93 in 10.0 mi WNW 27.6 mph 40.3 mph N/A   Clear
4:15 AM 36.0 °F 26.0 °F 23.0 °F 59% 29.93 in 10.0 mi NW 17.3 mph 34.5 mph N/A   Clear
4:35 AM 35.6 °F 25.9 °F 23.9 °F 62% 29.94 in 10.0 mi WNW 16.1 mph 32.2 mph N/A   Clear
5:15 AM 34.9 °F 27.1 °F 22.1 °F 60% 29.97 in 10.0 mi NW 10.4 mph 31.1 mph N/A   Clear
5:35 AM 34.3 °F 27.7 °F 21.2 °F 59% 29.98 in 10.0 mi NW 8.1 mph 19.6 mph N/A   Clear
5:55 AM 33.8 °F 24.8 °F 21.0 °F 60% 29.98 in 10.0 mi NNW 12.7 mph 26.5 mph N/A   Clear
6:15 AM 33.8 °F 23.5 °F 20.3 °F 58% 29.98 in 10.0 mi NW 16.1 mph 24.2 mph N/A   Clear
6:35 AM 33.3 °F 24.1 °F 20.7 °F 60% 30.00 in 10.0 mi NNW 12.7 mph 25.3 mph N/A   Clear
6:55 AM 32.9 °F 22.0 °F 20.5 °F 60% 30.00 in 10.0 mi NW 17.3 mph 26.5 mph N/A   Clear
7:15 AM 32.7 °F 24.5 °F 20.1 °F 60% 30.01 in 10.0 mi NW 10.4 mph 18.4 mph N/A   Clear
7:35 AM 33.3 °F 23.7 °F 20.1 °F 59% 30.02 in 10.0 mi NW 13.8 mph 24.2 mph N/A   Clear
7:55 AM 33.8 °F 23.2 °F 20.3 °F 58% 30.02 in 10.0 mi NW 17.3 mph 25.3 mph N/A   Clear
8:15 AM 34.3 °F 23.9 °F 20.1 °F 56% 30.04 in 10.0 mi NW 17.3 mph 27.6 mph N/A   Clear
8:35 AM 34.9 °F 26.2 °F 20.3 °F 55% 30.05 in 10.0 mi NNW 12.7 mph 24.2 mph N/A   Clear
9:15 AM 36.0 °F 26.3 °F 20.5 °F 53% 30.08 in 10.0 mi NW 16.1 mph 28.8 mph N/A   Clear
9:35 AM 37.4 °F 28.2 °F 20.8 °F 51% 30.08 in 10.0 mi NW 16.1 mph 24.2 mph N/A   Clear
10:15 AM 38.3 °F 28.7 °F 19.9 °F 48% 30.10 in 10.0 mi NNW 18.4 mph 29.9 mph N/A   Clear
10:35 AM 39.0 °F 30.6 °F 19.8 °F 46% 30.10 in 10.0 mi NNW 15.0 mph 28.8 mph N/A   Clear
10:55 AM 39.7 °F 32.3 °F 20.8 °F 47% 30.11 in 10.0 mi NNW 12.7 mph 27.6 mph N/A   Clear
11:15 AM 40.3 °F 33.9 °F 21.7 °F 48% 30.12 in 10.0 mi NNW 10.4 mph 21.9 mph N/A   Clear
11:35 AM 41.0 °F 32.8 °F 21.7 °F 46% 30.12 in 10.0 mi NW 16.1 mph 28.8 mph N/A   Clear
11:55 AM 41.4 °F 33.3 °F 22.1 °F 46% 30.13 in 10.0 mi NW 16.1 mph 28.8 mph N/A   Clear
12:15 PM 42.6 °F 35.9 °F 21.9 °F 44% 30.13 in 10.0 mi NNW 12.7 mph 26.5 mph N/A   Clear
12:35 PM 43.7 °F 35.7 °F 22.3 °F 43% 30.13 in 10.0 mi NNW 18.4 mph 25.3 mph N/A   Clear
12:55 PM 44.6 °F 37.8 °F 22.5 °F 42% 30.13 in 10.0 mi NNW 15.0 mph 24.2 mph N/A   Clear
1:15 PM 45.9 °F 40.8 °F 22.8 °F 40% 30.13 in 10.0 mi NNW 10.4 mph 18.4 mph N/A   Clear
1:35 PM 46.4 °F 40.7 °F 23.4 °F 40% 30.12 in 10.0 mi NW 12.7 mph 17.3 mph N/A   Clear
1:55 PM 46.9 °F - 22.6 °F 38% 30.12 in 10.0 mi NNW 13.8 mph 25.3 mph N/A   Clear
2:15 PM 47.3 °F - 20.8 °F 35% 30.13 in 10.0 mi NNW 12.7 mph 19.6 mph N/A   Clear
2:35 PM 48.4 °F - 22.1 °F 36% 30.12 in 10.0 mi NNW 11.5 mph 17.3 mph N/A   Clear
2:55 PM 49.1 °F - 22.3 °F 35% 30.13 in 10.0 mi NNW 9.2 mph 20.7 mph N/A   Clear
3:15 PM 49.3 °F - 20.5 °F 32% 30.13 in 10.0 mi NNW 12.7 mph 19.6 mph N/A   Clear
3:35 PM 50.5 °F - 21.6 °F 32% 30.13 in 10.0 mi NW 8.1 mph 18.4 mph N/A   Clear
4:15 PM 50.2 °F - 21.2 °F 32% 30.13 in 10.0 mi NW 9.2 mph 16.1 mph N/A   Clear
4:35 PM 50.5 °F - 20.7 °F 31% 30.13 in 10.0 mi NW 9.2 mph - N/A   Clear
4:55 PM 51.8 °F - 21.9 °F 31% 30.14 in 10.0 mi NW 12.7 mph 18.4 mph N/A   Clear
5:15 PM 51.1 °F - 21.2 °F 31% 30.14 in 10.0 mi NW 11.5 mph 17.3 mph N/A   Clear
5:35 PM 50.9 °F - 21.0 °F 31% 30.15 in 10.0 mi NNW 13.8 mph 20.7 mph N/A   Clear
5:55 PM 51.3 °F - 19.9 °F 29% 30.15 in 10.0 mi North 6.9 mph 16.1 mph N/A   Clear
6:15 PM 50.5 °F - 19.2 °F 29% 30.16 in 10.0 mi NNW 8.1 mph 17.3 mph N/A   Clear
6:35 PM 50.7 °F - 19.8 °F 30% 30.16 in 10.0 mi NW 10.4 mph 17.3 mph N/A   Clear
6:55 PM 50.2 °F - 18.7 °F 29% 30.16 in 10.0 mi NW 6.9 mph 19.6 mph N/A   Clear
7:15 PM 49.6 °F - 17.6 °F 28% 30.17 in 10.0 mi NNW 12.7 mph 19.6 mph N/A   Clear
7:35 PM 49.3 °F - 16.3 °F 27% 30.18 in 10.0 mi WNW 13.8 mph - N/A   Clear
7:55 PM 48.6 °F - 16.7 °F 28% 30.19 in 10.0 mi NW 8.1 mph - N/A   Clear
8:15 PM 47.3 °F - 17.1 °F 30% 30.20 in 10.0 mi NNW 8.1 mph - N/A   Clear
8:35 PM 46.4 °F 43.5 °F 17.2 °F 31% 30.21 in 10.0 mi NW 5.8 mph - N/A   Clear
8:55 PM 45.9 °F 43.6 °F 17.4 °F 32% 30.22 in 10.0 mi NNW 4.6 mph - N/A   Clear
9:15 PM 45.5 °F 43.2 °F 17.4 °F 33% 30.23 in 10.0 mi NNW 4.6 mph - N/A   Clear
9:35 PM 45.0 °F 42.6 °F 17.6 °F 33% 30.24 in 10.0 mi NNW 4.6 mph - N/A   Clear
9:55 PM 44.6 °F 42.2 °F 18.0 °F 34% 30.25 in 10.0 mi NNW 4.6 mph - N/A   Clear
10:15 PM 44.6 °F 42.2 °F 17.6 °F 34% 30.27 in 10.0 mi NNW 4.6 mph - N/A   Clear
10:35 PM 43.7 °F 41.1 °F 18.5 °F 36% 30.27 in 10.0 mi NNW 4.6 mph - N/A   Clear
10:55 PM 43.3 °F 40.7 °F 18.7 °F 37% 30.27 in 10.0 mi North 4.6 mph - N/A   Clear
11:15 PM 43.0 °F 41.3 °F 18.7 °F 38% 30.27 in 10.0 mi NNW 3.5 mph - N/A   Clear
11:35 PM 42.1 °F - 19.9 °F 41% 30.27 in 10.0 mi Calm Calm - N/A   Clear
11:55 PM 42.8 °F - 18.7 °F 38% 30.28 in 10.0 mi Calm Calm - N/A   Clear